Time;durP1;ratioP1;P1;durP2;ratioP2;P2;SDS_P1;SDS_P2;PMS_P1;PMS_P2;Temp;Humidity;BMP_temperature;BMP_pressure;BME280_temperature;BME280_humidity;BME280_pressure;Samples;Min_cycle;Max_cycle;Signal;HPM_P1;HPM_P2
2021/04/22 00:00:46;;;;;;;9.68;6.40;;;;;;;7.27;77.33;98556.84;4988110;28;20552;-74
2021/04/22 00:03:13;;;;;;;8.35;6.20;;;;;;;7.26;76.80;98552.53;4990139;28;20037;-74
2021/04/22 00:05:40;;;;;;;7.97;6.18;;;;;;;7.22;76.67;98556.94;4988556;28;20033;-74
2021/04/22 00:08:10;;;;;;;9.63;5.80;;;;;;;7.22;76.79;98556.09;4987803;28;20037;-74
2021/04/22 00:10:54;;;;;;;10.32;6.38;;;;;;;7.20;77.27;98548.31;4989521;28;20437;-74
2021/04/22 00:13:23;;;;;;;7.90;6.07;;;;;;;7.11;77.35;98538.16;4988144;28;20053;-74
2021/04/22 00:15:50;;;;;;;7.57;6.15;;;;;;;7.07;77.64;98550.38;4989194;28;20030;-74
2021/04/22 00:18:15;;;;;;;8.40;6.22;;;;;;;7.07;77.58;98554.72;4991273;28;20026;-73
2021/04/22 00:20:42;;;;;;;7.10;6.05;;;;;;;7.07;77.37;98547.78;4991978;28;20055;-74
2021/04/22 00:23:09;;;;;;;7.93;5.75;;;;;;;7.09;77.33;98552.09;4986498;28;20049;-74
2021/04/22 00:25:35;;;;;;;7.27;5.73;;;;;;;7.08;76.86;98548.63;4990432;28;20057;-74
2021/04/22 00:28:04;;;;;;;8.88;6.30;;;;;;;7.02;76.45;98551.41;4987968;28;20288;-73
2021/04/22 00:30:33;;;;;;;8.02;5.60;;;;;;;7.01;76.88;98549.69;4990920;28;20026;-74
2021/04/22 00:32:58;;;;;;;6.88;5.53;;;;;;;6.94;77.54;98550.72;4988525;28;20473;-74
2021/04/22 00:35:26;;;;;;;8.95;5.55;;;;;;;6.91;77.81;98551.63;4985946;28;20538;-74
2021/04/22 00:37:51;;;;;;;;;;;;;;;6.85;77.94;98554.41;4990048;28;20412;-73
2021/04/22 00:40:21;;;;;;;9.10;6.35;;;;;;;6.82;78.04;98557.06;4987800;28;19913;-74
2021/04/22 00:42:48;;;;;;;9.57;6.72;;;;;;;6.77;78.13;98550.25;4988320;28;20440;-73
2021/04/22 00:45:15;;;;;;;7.13;5.22;;;;;;;6.68;78.47;98543.53;4987621;28;20038;-74
2021/04/22 00:47:42;;;;;;;7.60;6.03;;;;;;;6.57;79.41;98548.13;4987590;28;20033;-73
2021/04/22 00:50:11;;;;;;;8.32;6.43;;;;;;;6.44;79.93;98550.13;4988816;28;20145;-74
2021/04/22 00:52:37;;;;;;;10.40;6.00;;;;;;;6.26;80.65;98553.97;4992948;28;20030;-74
2021/04/22 00:55:03;;;;;;;8.98;5.90;;;;;;;6.14;81.73;98554.22;4988272;28;20041;-74
2021/04/22 00:57:29;;;;;;;8.60;6.53;;;;;;;6.05;81.85;98554.44;4988243;28;20049;-74
2021/04/22 00:59:54;;;;;;;7.10;5.82;;;;;;;5.91;82.40;98566.81;4988254;28;20097;-74
2021/04/22 01:02:20;;;;;;;8.13;6.05;;;;;;;5.80;83.25;98564.41;4988281;28;20034;-74
2021/04/22 01:04:47;;;;;;;8.38;6.40;;;;;;;5.82;84.20;98578.19;4988396;28;20096;-74
2021/04/22 01:07:16;;;;;;;8.50;6.50;;;;;;;5.72;84.90;98571.47;4988110;28;20100;-75
2021/04/22 01:09:41;;;;;;;8.20;6.38;;;;;;;5.61;85.76;98576.00;4990789;28;20042;-74
2021/04/22 01:12:08;;;;;;;10.55;6.47;;;;;;;5.52;85.88;98577.00;4991056;28;20157;-74
2021/04/22 01:14:34;;;;;;;9.30;6.68;;;;;;;5.55;86.48;98589.94;4988379;28;20034;-74
2021/04/22 01:16:59;;;;;;;10.20;6.85;;;;;;;5.43;86.24;98589.31;4989242;28;20053;-74
2021/04/22 01:19:25;;;;;;;12.05;6.57;;;;;;;5.29;86.35;98586.94;4986377;28;20454;-74
2021/04/22 01:21:52;;;;;;;8.35;6.38;;;;;;;5.15;86.55;98592.34;4984332;28;20081;-74
2021/04/22 01:24:17;;;;;;;9.07;6.38;;;;;;;5.04;86.25;98601.19;4988919;28;20031;-75
2021/04/22 01:26:43;;;;;;;9.52;7.80;;;;;;;5.10;86.41;98599.34;4988183;28;20038;-74
2021/04/22 01:29:08;;;;;;;10.15;6.78;;;;;;;4.95;86.56;98600.44;4986263;28;20405;-74
2021/04/22 01:31:34;;;;;;;15.10;7.22;;;;;;;4.91;86.80;98597.91;4988998;28;20053;-74
2021/04/22 01:34:07;;;;;;;7.97;6.10;;;;;;;4.79;86.53;98609.31;4988242;28;20019;-74
2021/04/22 01:36:41;;;;;;;8.30;6.07;;;;;;;4.70;86.46;98612.06;4989032;28;20065;-74
2021/04/22 01:39:09;;;;;;;7.00;5.68;;;;;;;4.63;86.45;98613.00;4989568;28;20427;-74
2021/04/22 01:41:35;;;;;;;7.97;6.05;;;;;;;4.62;87.01;98607.84;4991335;28;20042;-74
2021/04/22 01:44:01;;;;;;;9.35;5.75;;;;;;;4.54;85.92;98600.19;4988893;28;20033;-74
2021/04/22 01:46:29;;;;;;;8.02;6.05;;;;;;;4.52;86.63;98605.38;4989252;28;20022;-73
2021/04/22 01:48:54;;;;;;;9.75;7.15;;;;;;;4.38;86.34;98607.31;4987596;28;20030;-74
2021/04/22 01:51:21;;;;;;;9.25;7.28;;;;;;;4.33;86.79;98598.72;4988891;28;20369;-74
2021/04/22 01:53:46;;;;;;;11.88;7.38;;;;;;;4.32;87.11;98615.13;4986873;28;20030;-74
2021/04/22 01:56:12;;;;;;;14.65;7.55;;;;;;;4.32;87.38;98609.09;4989161;28;20485;-74
2021/04/22 01:58:38;;;;;;;10.55;7.85;;;;;;;4.29;87.17;98611.72;4994915;28;20037;-74
2021/04/22 02:01:03;;;;;;;11.25;7.35;;;;;;;4.29;87.33;98609.97;4998039;28;20054;-74
2021/04/22 02:03:33;;;;;;;9.80;7.10;;;;;;;4.44;87.93;98622.75;4992128;28;20039;-74
2021/04/22 02:06:06;;;;;;;9.52;7.43;;;;;;;4.54;88.23;98624.34;4991271;28;20391;-75
2021/04/22 02:08:32;;;;;;;11.60;7.75;;;;;;;4.54;88.23;98613.13;4990176;28;20396;-74
2021/04/22 02:11:03;;;;;;;9.27;6.93;;;;;;;4.50;88.26;98616.63;4992074;28;20510;-74
2021/04/22 02:13:29;;;;;;;9.63;6.72;;;;;;;4.45;88.94;98624.44;4992571;28;20370;-74
2021/04/22 02:15:59;;;;;;;10.02;6.97;;;;;;;4.42;88.79;98628.84;4994640;28;20030;-73
2021/04/22 02:18:25;;;;;;;9.88;7.32;;;;;;;4.42;88.47;98627.09;4973993;28;20031;-74
2021/04/22 02:20:51;;;;;;;9.95;7.63;;;;;;;4.40;88.86;98631.44;4991373;28;20026;-74
2021/04/22 02:23:18;;;;;;;10.00;6.82;;;;;;;4.33;88.68;98627.19;4991426;28;20026;-74
2021/04/22 02:25:44;;;;;;;9.88;7.00;;;;;;;4.32;88.42;98630.66;4991546;28;20034;-74
2021/04/22 02:28:10;;;;;;;9.07;7.00;;;;;;;4.35;88.20;98633.22;4994663;28;20041;-74
2021/04/22 02:30:38;;;;;;;11.10;7.57;;;;;;;4.44;88.50;98633.09;4989834;28;20040;-74
2021/04/22 02:33:10;;;;;;;8.57;6.97;;;;;;;4.53;88.33;98627.81;4985041;28;20027;-73
2021/04/22 02:35:41;;;;;;;9.32;7.55;;;;;;;4.59;88.19;98632.03;5008208;28;20596;-73
2021/04/22 02:38:11;;;;;;;8.48;6.50;;;;;;;4.54;87.87;98634.72;4978271;28;20030;-74
2021/04/22 02:40:38;;;;;;;8.70;7.00;;;;;;;4.49;87.69;98641.66;4991187;28;20057;-74
2021/04/22 02:43:06;;;;;;;8.70;6.82;;;;;;;4.36;87.78;98634.94;4991907;28;20082;-74
2021/04/22 02:45:32;;;;;;;;;;;;;;;4.28;86.92;98639.34;4991840;28;20045;-75
2021/04/22 02:47:59;;;;;;;12.82;6.70;;;;;;;4.21;87.60;98638.56;4992414;28;20383;-75
2021/04/22 02:50:27;;;;;;;8.18;6.18;;;;;;;4.12;87.61;98646.44;4990644;28;20034;-76
2021/04/22 02:52:53;;;;;;;8.00;6.32;;;;;;;4.09;87.71;98643.88;4989638;28;20057;-74
2021/04/22 02:55:19;;;;;;;9.25;6.00;;;;;;;4.09;87.96;98637.84;4991801;28;20032;-74
2021/04/22 02:57:44;;;;;;;9.35;7.00;;;;;;;4.14;88.38;98638.63;4979918;28;20039;-74
2021/04/22 03:00:17;;;;;;;10.82;7.55;;;;;;;4.23;88.00;98646.31;4991217;28;20084;-73
2021/04/22 03:02:42;;;;;;;9.77;6.95;;;;;;;4.28;88.50;98641.91;4989221;28;20113;-74
2021/04/22 03:05:08;;;;;;;8.60;6.85;;;;;;;4.34;88.64;98641.00;4990379;28;20469;-74
2021/04/22 03:07:34;;;;;;;9.05;7.07;;;;;;;4.36;88.35;98645.28;5000665;28;20034;-75
2021/04/22 03:10:00;;;;;;;10.50;6.97;;;;;;;4.39;88.43;98644.41;5001782;28;20125;-74
2021/04/22 03:12:26;;;;;;;11.77;7.78;;;;;;;4.49;87.82;98636.50;4991384;28;20096;-75
2021/04/22 03:14:51;;;;;;;12.40;7.82;;;;;;;4.55;88.27;98639.00;4980925;28;20497;-75
2021/04/22 03:17:17;;;;;;;9.90;6.47;;;;;;;4.54;87.86;98634.72;4981261;28;20488;-75
2021/04/22 03:19:43;;;;;;;10.02;7.20;;;;;;;4.57;88.15;98637.25;4997641;28;20029;-75
2021/04/22 03:22:09;;;;;;;10.98;6.75;;;;;;;4.52;87.84;98633.88;4997811;28;20459;-75
2021/04/22 03:24:34;;;;;;;9.57;8.20;;;;;;;4.54;87.59;98646.81;4990474;28;20026;-76
2021/04/22 03:26:59;;;;;;;11.32;7.30;;;;;;;4.53;87.79;98640.75;4989991;28;20076;-75
2021/04/22 03:29:25;;;;;;;11.88;9.40;;;;;;;4.66;87.28;98646.63;4990796;28;20041;-75
2021/04/22 03:31:50;;;;;;;10.52;7.90;;;;;;;4.78;86.97;98645.59;4991276;28;20029;-75
2021/04/22 03:34:16;;;;;;;10.88;7.78;;;;;;;4.82;86.52;98639.50;4991174;28;20026;-75
2021/04/22 03:36:41;;;;;;;13.73;9.00;;;;;;;4.89;86.45;98647.16;4989768;28;20049;-75
2021/04/22 03:39:07;;;;;;;13.65;8.88;;;;;;;4.96;86.01;98640.16;4991472;28;20529;-75
2021/04/22 03:41:33;;;;;;;12.40;8.65;;;;;;;4.93;86.20;98641.06;4989356;28;20053;-74
2021/04/22 03:43:58;;;;;;;14.20;9.15;;;;;;;4.94;85.45;98644.50;4988614;28;20611;-73
2021/04/22 03:46:24;;;;;;;12.35;8.88;;;;;;;5.07;85.73;98634.81;4995337;28;20030;-74
2021/04/22 03:48:49;;;;;;;12.18;9.13;;;;;;;5.07;85.19;98647.78;4988598;28;20093;-73
2021/04/22 03:51:14;;;;;;;14.52;10.88;;;;;;;5.21;85.20;98651.88;4987676;28;20027;-74
2021/04/22 03:53:40;;;;;;;18.58;11.57;;;;;;;5.61;83.73;98649.50;4990613;28;20382;-74
2021/04/22 03:56:06;;;;;;;15.30;11.82;;;;;;;5.87;82.62;98655.97;4991108;28;20034;-74
2021/04/22 03:58:31;;;;;;;17.58;12.43;;;;;;;6.11;81.54;98658.13;4989467;28;20080;-74
2021/04/22 04:00:57;;;;;;;16.50;12.57;;;;;;;5.89;82.19;98667.22;4989712;28;20264;-74
2021/04/22 04:03:22;;;;;;;19.25;11.95;;;;;;;5.85;81.70;98678.50;4977684;28;20055;-75
2021/04/22 04:05:50;;;;;;;15.00;11.65;;;;;;;5.79;82.05;98679.47;4990441;28;20052;-74
2021/04/22 04:08:16;;;;;;;16.15;11.70;;;;;;;5.73;81.95;98686.50;4990872;28;20022;-74
2021/04/22 04:10:41;;;;;;;13.93;10.60;;;;;;;5.87;81.90;98671.53;4988222;28;20117;-75
2021/04/22 04:13:07;;;;;;;16.23;10.98;;;;;;;5.97;81.68;98680.91;4989527;28;20113;-75
2021/04/22 04:15:32;;;;;;;16.52;11.73;;;;;;;5.98;81.39;98678.28;4990959;28;20092;-75
2021/04/22 04:17:59;;;;;;;13.25;11.85;;;;;;;6.09;80.79;98677.25;4990668;28;20030;-75
2021/04/22 04:20:24;;;;;;;17.50;11.85;;;;;;;6.04;81.20;98679.06;4983422;28;20030;-74
2021/04/22 04:22:50;;;;;;;14.13;10.15;;;;;;;5.98;80.96;98687.78;4985559;28;20030;-74
2021/04/22 04:25:15;;;;;;;14.65;10.40;;;;;;;5.90;81.13;98684.50;4982123;28;20437;-74
2021/04/22 04:27:41;;;;;;;15.70;11.15;;;;;;;5.85;81.25;98696.66;4971941;28;20044;-75
2021/04/22 04:30:09;;;;;;;12.80;9.80;;;;;;;5.81;81.38;98700.19;4990411;28;20026;-75
2021/04/22 04:32:35;;;;;;;42.03;21.33;;;;;;;5.79;81.72;98701.97;4987241;28;20512;-74
2021/04/22 04:35:00;;;;;;;63.78;30.05;;;;;;;5.80;81.50;98707.13;4989155;28;20110;-74
2021/04/22 04:37:25;;;;;;;32.92;18.20;;;;;;;5.88;81.28;98712.19;4987372;28;20033;-74
2021/04/22 04:39:51;;;;;;;13.10;10.70;;;;;;;5.94;81.17;98714.72;4987369;28;20030;-74
2021/04/22 04:42:17;;;;;;;16.20;12.15;;;;;;;6.06;81.14;98719.69;4987736;28;20037;-74
2021/04/22 04:44:43;;;;;;;17.20;12.00;;;;;;;6.05;80.74;98728.34;4988009;28;20124;-74
2021/04/22 04:47:08;;;;;;;16.95;11.82;;;;;;;6.07;80.64;98721.41;4980262;28;20732;-75
2021/04/22 04:49:34;;;;;;;14.40;10.32;;;;;;;6.14;80.64;98732.50;4998306;28;20034;-74
2021/04/22 04:52:02;;;;;;;15.93;11.23;;;;;;;6.22;80.60;98736.72;4988320;28;20114;-74
2021/04/22 04:54:27;;;;;;;19.48;12.77;;;;;;;6.20;80.82;98742.81;4993542;28;20065;-74
2021/04/22 04:56:53;;;;;;;20.25;14.13;;;;;;;6.11;80.66;98748.19;4989078;28;20069;-74
2021/04/22 04:59:18;;;;;;;22.27;13.25;;;;;;;6.07;80.85;98742.16;4971442;28;20099;-75
2021/04/22 05:01:43;;;;;;;24.85;15.32;;;;;;;5.97;80.97;98757.03;4980317;28;20161;-75
2021/04/22 05:04:09;;;;;;;26.70;14.75;;;;;;;5.89;81.60;98763.25;4990673;28;20045;-74
2021/04/22 05:06:34;;;;;;;20.95;13.52;;;;;;;5.83;81.54;98768.47;4993678;28;20037;-75
2021/04/22 05:09:00;;;;;;;21.95;13.40;;;;;;;5.78;81.87;98765.97;4985173;28;20125;-75
2021/04/22 05:11:25;;;;;;;14.35;11.50;;;;;;;5.78;82.05;98780.69;4991905;28;20041;-75
2021/04/22 05:13:53;;;;;;;20.98;12.32;;;;;;;5.76;82.66;98788.50;4989288;28;20022;-75
2021/04/22 05:16:18;;;;;;;16.50;10.95;;;;;;;5.71;82.69;98784.25;4994400;28;20034;-75
2021/04/22 05:18:44;;;;;;;17.73;11.70;;;;;;;5.77;82.51;98798.00;4987585;28;20096;-74
2021/04/22 05:21:10;;;;;;;16.70;11.52;;;;;;;5.83;82.70;98792.69;4985501;28;20113;-75
2021/04/22 05:23:35;;;;;;;14.63;10.82;;;;;;;5.92;82.65;98800.38;4984341;28;20137;-75
2021/04/22 05:26:01;;;;;;;14.18;10.27;;;;;;;6.03;82.41;98799.34;4969370;28;20026;-75
2021/04/22 05:28:26;;;;;;;17.52;10.75;;;;;;;6.20;81.88;98800.78;4981617;28;20027;-75
2021/04/22 05:30:52;;;;;;;17.50;11.02;;;;;;;6.41;81.19;98802.16;4986199;28;20034;-75
2021/04/22 05:33:20;;;;;;;16.42;11.13;;;;;;;6.63;80.59;98808.69;4991295;28;20408;-75
2021/04/22 05:35:46;;;;;;;14.70;11.57;;;;;;;6.89;80.20;98805.56;5005378;28;20082;-75
2021/04/22 05:38:12;;;;;;;15.00;10.60;;;;;;;7.16;78.94;98808.53;5004575;28;20500;-76
2021/04/22 05:40:37;;;;;;;28.65;16.50;;;;;;;7.36;77.26;98799.41;4994457;28;20034;-76
2021/04/22 05:43:07;;;;;;;23.27;14.52;;;;;;;7.38;76.77;98800.22;4991080;28;20040;-78
2021/04/22 05:45:32;;;;;;;17.25;13.07;;;;;;;7.56;76.32;98800.72;4996156;28;20027;-77
2021/04/22 05:47:58;;;;;;;13.32;10.38;;;;;;;7.78;75.75;98806.31;4983725;28;20035;-74
2021/04/22 05:50:24;;;;;;;12.98;9.13;;;;;;;7.94;74.63;98811.13;4992873;28;20116;-75
2021/04/22 05:52:50;;;;;;;11.27;8.63;;;;;;;8.03;73.84;98813.50;4997522;28;20100;-74
2021/04/22 05:55:16;;;;;;;12.18;9.60;;;;;;;8.16;73.23;98816.66;4990864;28;20130;-74
2021/04/22 05:57:42;;;;;;;12.25;9.05;;;;;;;8.26;73.21;98815.50;4982406;28;20037;-74
2021/04/22 06:00:13;;;;;;;12.48;8.05;;;;;;;8.36;72.98;98814.44;4982260;28;20030;-70
2021/04/22 06:02:39;;;;;;;11.48;9.10;;;;;;;8.39;73.09;98813.50;4978658;28;20188;-69
2021/04/22 06:05:05;;;;;;;11.45;8.98;;;;;;;8.44;73.37;98814.22;4987042;28;20133;-70
2021/04/22 06:07:30;;;;;;;10.23;8.48;;;;;;;8.42;72.86;98818.63;4990512;28;20040;-70
2021/04/22 06:09:56;;;;;;;11.07;9.00;;;;;;;8.54;72.59;98825.28;4990331;28;20142;-70
2021/04/22 06:12:21;;;;;;;12.20;8.77;;;;;;;8.70;71.58;98826.59;4985352;28;20057;-69
2021/04/22 06:14:46;;;;;;;11.82;8.60;;;;;;;8.83;70.42;98838.41;4989146;28;20443;-70
2021/04/22 06:17:12;;;;;;;10.63;7.97;;;;;;;8.98;69.85;98838.00;4991109;28;20375;-70
2021/04/22 06:19:37;;;;;;;12.05;8.10;;;;;;;8.90;69.05;98839.94;4988165;28;20021;-69
2021/04/22 06:22:03;;;;;;;9.48;6.65;;;;;;;9.02;69.32;98837.00;4989928;28;20038;-70
2021/04/22 06:24:28;;;;;;;8.88;7.30;;;;;;;9.04;69.84;98853.47;5002904;28;20037;-70
2021/04/22 06:26:55;;;;;;;10.20;7.45;;;;;;;9.27;68.38;98852.84;4987145;28;20038;-69
2021/04/22 06:29:21;;;;;;;11.15;7.85;;;;;;;9.39;67.81;98852.47;4983687;28;20038;-70
2021/04/22 06:31:47;;;;;;;10.73;7.45;;;;;;;9.48;67.20;98852.22;4989266;28;20057;-74
2021/04/22 06:34:13;;;;;;;10.77;8.02;;;;;;;9.29;68.35;98848.44;4986426;28;20022;-72
2021/04/22 06:36:39;;;;;;;11.15;8.40;;;;;;;9.25;67.26;98865.06;4987845;28;20117;-72
2021/04/22 06:39:05;;;;;;;9.38;7.38;;;;;;;9.37;67.58;98856.03;4990324;28;20034;-72
2021/04/22 06:41:30;;;;;;;10.68;6.65;;;;;;;9.42;65.58;98869.81;4989078;28;20053;-75
2021/04/22 06:43:56;;;;;;;9.73;6.63;;;;;;;9.62;64.29;98859.66;4990789;28;20061;-77
2021/04/22 06:46:21;;;;;;;12.32;7.50;;;;;;;9.52;65.39;98869.50;4983693;28;20030;-76
2021/04/22 06:48:46;;;;;;;10.93;7.65;;;;;;;9.57;64.67;98873.75;4988988;28;20101;-76
2021/04/22 06:51:12;;;;;;;11.38;6.68;;;;;;;9.73;63.29;98878.47;4985615;28;20018;-69
2021/04/22 06:53:37;;;;;;;10.95;7.50;;;;;;;9.61;64.10;98883.22;4991146;28;20026;-69
2021/04/22 06:56:07;;;;;;;8.65;6.22;;;;;;;9.80;62.36;98881.75;4984863;28;20030;-69
2021/04/22 06:58:33;;;;;;;9.20;6.43;;;;;;;9.67;63.53;98883.00;4985128;28;20086;-69
2021/04/22 07:00:58;;;;;;;12.02;7.25;;;;;;;9.61;63.04;98891.03;4986412;28;20045;-68
2021/04/22 07:03:23;;;;;;;12.63;7.05;;;;;;;9.75;62.27;98900.19;4986286;28;20050;-69
2021/04/22 07:05:49;;;;;;;9.65;6.38;;;;;;;9.94;61.80;98899.59;4984828;28;20069;-69
2021/04/22 07:08:14;;;;;;;10.27;6.82;;;;;;;9.69;63.01;98896.88;4984434;28;20069;-69
2021/04/22 07:10:41;;;;;;;10.98;6.13;;;;;;;9.98;62.06;98898.63;4983542;28;20412;-69
2021/04/22 07:13:07;;;;;;;12.90;6.40;;;;;;;9.82;61.73;98906.06;4985418;28;20435;-68
2021/04/22 07:15:32;;;;;;;8.13;6.10;;;;;;;9.73;61.34;98901.13;4985310;28;20034;-69
2021/04/22 07:17:59;;;;;;;11.23;6.72;;;;;;;9.73;62.08;98912.41;4988455;28;20041;-69
2021/04/22 07:20:24;;;;;;;11.00;6.60;;;;;;;10.02;60.97;98914.16;4985748;28;20092;-69
2021/04/22 07:22:52;;;;;;;10.18;6.10;;;;;;;10.13;60.06;98919.06;4991344;28;20313;-67
2021/04/22 07:25:17;;;;;;;;;;;;;;;10.06;60.61;98918.41;4986449;28;20038;-69
2021/04/22 07:27:43;;;;;;;9.20;6.05;;;;;;;10.03;61.52;98917.63;4988481;28;20327;-69
2021/04/22 07:30:10;;;;;;;8.48;5.72;;;;;;;10.25;59.73;98921.31;4986262;28;20417;-68
2021/04/22 07:32:39;;;;;;;9.23;5.93;;;;;;;10.36;58.42;98913.16;4989735;28;20461;-69
2021/04/22 07:35:06;;;;;;;9.70;5.70;;;;;;;10.65;58.31;98923.53;4987608;28;20064;-68
2021/04/22 07:37:32;;;;;;;10.23;5.82;;;;;;;10.38;58.25;98927.91;4989999;28;20101;-68
2021/04/22 07:39:58;;;;;;;10.60;6.18;;;;;;;10.63;57.86;98924.47;4968349;28;20570;-69
2021/04/22 07:42:23;;;;;;;8.57;6.07;;;;;;;10.32;58.91;98930.69;4987891;28;20038;-68
2021/04/22 07:44:48;;;;;;;8.63;5.53;;;;;;;10.54;57.85;98934.31;4986597;28;20034;-68
2021/04/22 07:47:15;;;;;;;10.30;5.28;;;;;;;10.54;57.18;98928.25;4985671;28;20085;-69
2021/04/22 07:49:42;;;;;;;8.88;5.18;;;;;;;10.31;57.90;98928.13;4983680;28;20480;-69
2021/04/22 07:52:08;;;;;;;9.15;5.53;;;;;;;10.46;58.09;98931.09;4986578;28;20066;-68
2021/04/22 07:54:33;;;;;;;11.77;5.43;;;;;;;10.87;56.34;98940.22;4988596;28;20065;-69
2021/04/22 07:56:58;;;;;;;8.75;5.72;;;;;;;10.84;58.37;98942.97;4976599;28;20153;-69
2021/04/22 07:59:24;;;;;;;7.47;5.15;;;;;;;10.89;56.85;98941.03;4982391;28;20030;-69
2021/04/22 08:01:49;;;;;;;7.60;5.22;;;;;;;11.19;55.70;98940.88;4984672;28;20100;-69
2021/04/22 08:04:14;;;;;;;8.48;5.38;;;;;;;10.88;57.43;98938.44;4987699;28;20504;-69
2021/04/22 08:06:40;;;;;;;7.57;5.00;;;;;;;10.82;57.81;98944.75;4988506;28;20110;-68
2021/04/22 08:09:05;;;;;;;7.72;5.90;;;;;;;11.03;55.14;98937.94;4982289;28;20118;-69
2021/04/22 08:11:31;;;;;;;7.45;5.22;;;;;;;10.71;56.05;98944.22;4987789;28;20034;-70
2021/04/22 08:13:57;;;;;;;8.68;5.07;;;;;;;11.33;55.62;98938.63;4985260;28;20452;-69
2021/04/22 08:16:22;;;;;;;10.30;5.88;;;;;;;10.62;56.77;98946.31;4987437;28;20030;-70
2021/04/22 08:18:48;;;;;;;10.52;5.15;;;;;;;11.04;55.46;98951.88;4980823;28;20520;-69
2021/04/22 08:21:14;;;;;;;9.40;5.70;;;;;;;10.74;57.34;98952.00;4982829;28;20034;-69
2021/04/22 08:23:39;;;;;;;10.02;5.25;;;;;;;11.00;55.33;98947.69;4985326;28;20515;-69
2021/04/22 08:26:08;;;;;;;7.95;5.32;;;;;;;11.55;53.80;98943.97;4982218;28;20602;-70
2021/04/22 08:28:34;;;;;;;9.60;5.65;;;;;;;11.96;52.53;98945.09;4985818;28;20069;-74
2021/04/22 08:31:04;;;;;;;10.95;5.57;;;;;;;12.78;50.26;98949.72;4985321;28;20022;-74
2021/04/22 08:33:39;;;;;;;7.35;5.22;;;;;;;12.34;51.38;98951.50;4982845;28;20493;-75
2021/04/22 08:36:06;;;;;;;8.60;4.95;;;;;;;12.06;54.11;98953.50;4983269;28;20492;-74
2021/04/22 08:38:32;;;;;;;8.73;5.05;;;;;;;12.99;49.10;98953.22;4982738;28;20027;-74
2021/04/22 08:40:58;;;;;;;8.40;5.07;;;;;;;12.07;50.99;98948.16;4982088;28;20034;-74
2021/04/22 08:43:24;;;;;;;11.38;5.40;;;;;;;13.09;50.31;98946.69;4987768;28;20034;-75
2021/04/22 08:45:53;;;;;;;9.07;5.03;;;;;;;12.78;50.25;98952.34;4988049;28;20050;-75
2021/04/22 08:48:19;;;;;;;6.95;4.40;;;;;;;12.93;49.71;98948.25;4997018;28;20524;-74
2021/04/22 08:50:47;;;;;;;7.13;4.43;;;;;;;12.81;48.96;98954.00;4985312;28;20359;-74
2021/04/22 08:53:31;;;;;;;6.82;4.10;;;;;;;12.86;48.92;98958.13;4982945;28;20127;-74
2021/04/22 08:55:58;;;;;;;8.90;4.10;;;;;;;13.09;48.70;98956.34;4985810;28;20116;-74
2021/04/22 08:58:24;;;;;;;7.63;4.43;;;;;;;13.02;49.01;98959.19;4996405;28;20038;-74
2021/04/22 09:00:56;;;;;;;8.77;4.10;;;;;;;12.95;47.79;98956.91;4987151;28;20666;-74
2021/04/22 09:03:22;;;;;;;8.82;4.22;;;;;;;13.44;47.79;98958.34;4984436;28;20026;-73
2021/04/22 09:05:48;;;;;;;8.10;3.92;;;;;;;13.57;43.75;98956.88;4987012;28;20515;-74
2021/04/22 09:08:14;;;;;;;10.07;4.00;;;;;;;13.95;42.99;98954.31;4994078;28;20064;-74
2021/04/22 09:10:40;;;;;;;6.53;3.22;;;;;;;14.33;42.47;98960.44;4985066;28;20026;-74
2021/04/22 09:13:13;;;;;;;5.28;3.30;;;;;;;14.71;41.83;98958.63;4986659;28;20022;-74
2021/04/22 09:15:41;;;;;;;6.97;3.75;;;;;;;15.19;41.64;98955.34;4984514;28;20034;-75
2021/04/22 09:18:12;;;;;;;6.35;3.60;;;;;;;15.25;40.54;98962.94;4987539;28;20056;-74
2021/04/22 09:20:50;;;;;;;7.60;3.80;;;;;;;15.37;40.60;98959.66;4987631;28;20076;-74
2021/04/22 09:23:35;;;;;;;;;;;;;;;15.48;40.06;98962.59;4985839;28;20077;-74
2021/04/22 09:26:05;;;;;;;7.22;3.65;;;;;;;15.22;40.07;98959.59;4978922;28;19956;-74
2021/04/22 09:28:40;;;;;;;6.25;3.42;;;;;;;14.68;42.28;98972.78;4984628;28;20026;-74
2021/04/22 09:31:07;;;;;;;6.97;3.65;;;;;;;15.05;41.73;98963.06;4985904;28;20407;-74
2021/04/22 09:33:33;;;;;;;6.30;3.55;;;;;;;14.87;41.69;98953.44;4986680;28;20141;-74
2021/04/22 09:36:25;;;;;;;6.07;3.42;;;;;;;15.27;39.75;98949.69;4987038;28;20027;-74
2021/04/22 09:38:54;;;;;;;5.63;3.10;;;;;;;15.40;40.33;98948.13;4989838;28;20047;-73
2021/04/22 09:41:20;;;;;;;8.38;3.60;;;;;;;14.93;41.38;98948.75;4995649;28;20104;-74
2021/04/22 09:43:45;;;;;;;8.80;3.65;;;;;;;15.19;40.59;98957.13;4992996;28;20077;-75
2021/04/22 09:46:23;;;;;;;6.57;3.85;;;;;;;15.42;39.35;98952.38;4987791;28;20038;-74
2021/04/22 09:48:48;;;;;;;5.78;3.30;;;;;;;15.60;40.02;98940.03;5006513;28;20030;-72
2021/04/22 09:51:30;;;;;;;5.85;3.40;;;;;;;15.51;39.76;98948.41;4987139;28;20091;-73
2021/04/22 09:54:22;;;;;;;7.78;4.07;;;;;;;15.54;40.99;98953.53;4993108;28;20345;-73
2021/04/22 09:56:49;;;;;;;5.57;2.95;;;;;;;14.74;42.38;98961.97;4987517;28;20069;-74
2021/04/22 09:59:20;;;;;;;5.78;3.47;;;;;;;15.14;41.71;98946.81;4989329;28;20034;-74
2021/04/22 10:01:57;;;;;;;6.38;3.85;;;;;;;15.20;40.38;98950.91;4983922;28;20077;-74
2021/04/22 10:04:32;;;;;;;6.70;3.20;;;;;;;14.76;40.65;98956.63;4988279;28;20445;-74
2021/04/22 10:07:01;;;;;;;5.38;3.20;;;;;;;15.53;39.47;98948.34;4985727;28;20065;-74
2021/04/22 10:09:34;;;;;;;5.57;3.60;;;;;;;15.35;38.97;98955.41;4988347;28;20341;-74
2021/04/22 10:12:03;;;;;;;7.53;3.42;;;;;;;15.53;38.81;98948.34;4980709;28;20540;-74
2021/04/22 10:14:36;;;;;;;8.30;4.95;;;;;;;14.95;39.94;98946.91;4987686;28;20026;-74
2021/04/22 10:17:19;;;;;;;5.15;3.40;;;;;;;15.36;38.57;98951.84;4982805;28;20113;-75
2021/04/22 10:20:06;;;;;;;5.30;3.00;;;;;;;15.94;37.78;98946.16;4982394;28;20357;-75
2021/04/22 10:22:37;;;;;;;8.20;3.30;;;;;;;16.00;37.76;98951.13;4986071;28;20031;-70
2021/04/22 10:25:06;;;;;;;5.32;2.97;;;;;;;16.42;36.30;98945.28;4982496;28;20034;-70
2021/04/22 10:27:33;;;;;;;5.45;2.90;;;;;;;15.88;37.29;98938.59;4989866;28;20052;-68
2021/04/22 10:29:58;;;;;;;6.50;2.88;;;;;;;16.67;36.67;98937.69;4984276;28;20089;-70
2021/04/22 10:32:25;;;;;;;8.00;2.90;;;;;;;16.26;33.82;98944.41;4989872;28;20032;-69
2021/04/22 10:34:51;;;;;;;6.50;2.88;;;;;;;16.14;33.99;98944.16;4992380;28;20461;-70
2021/04/22 10:37:23;;;;;;;6.03;2.67;;;;;;;16.47;33.11;98943.25;4988196;28;20493;-70
2021/04/22 10:39:53;;;;;;;7.40;2.60;;;;;;;16.05;31.81;98930.59;4986002;28;20037;-70
2021/04/22 10:42:20;;;;;;;6.50;2.90;;;;;;;15.75;33.05;98947.16;4989722;28;20048;-70
2021/04/22 10:44:53;;;;;;;5.68;2.58;;;;;;;16.00;31.49;98936.16;4985339;28;20511;-69
2021/04/22 10:47:20;;;;;;;4.53;2.40;;;;;;;16.48;29.90;98934.38;4989788;28;20076;-69
2021/04/22 10:49:49;;;;;;;4.28;2.38;;;;;;;17.12;30.04;98933.31;4986371;28;20031;-69
2021/04/22 10:52:16;;;;;;;3.60;2.10;;;;;;;16.52;31.27;98931.47;4987219;28;20097;-69
2021/04/22 10:54:43;;;;;;;4.93;2.63;;;;;;;17.00;31.02;98932.25;4986740;28;20532;-68
2021/04/22 10:57:15;;;;;;;5.07;2.60;;;;;;;17.38;30.38;98922.06;4986084;28;20279;-69
2021/04/22 10:59:44;;;;;;;4.55;2.47;;;;;;;16.94;30.18;98927.34;4985644;28;20058;-69
2021/04/22 11:02:17;;;;;;;6.18;2.53;;;;;;;17.34;30.68;98932.91;4989913;28;20053;-70
2021/04/22 11:04:44;;;;;;;4.13;2.35;;;;;;;17.52;29.25;98929.19;4986815;28;20038;-69
2021/04/22 11:07:23;;;;;;;5.28;2.67;;;;;;;17.55;31.64;98919.25;4983895;28;20712;-70
2021/04/22 11:09:55;;;;;;;4.57;2.50;;;;;;;17.90;29.92;98914.47;4985262;28;20038;-70
2021/04/22 11:12:24;;;;;;;3.92;2.47;;;;;;;18.44;28.95;98916.38;4988893;28;20383;-69
2021/04/22 11:14:52;;;;;;;3.33;1.90;;;;;;;17.57;27.31;98922.63;4990030;28;20026;-70
2021/04/22 11:17:37;;;;;;;4.13;2.00;;;;;;;17.70;27.26;98917.50;4988934;28;20153;-70
2021/04/22 11:20:17;;;;;;;5.20;2.45;;;;;;;17.68;26.59;98916.75;4989148;28;20105;-69
2021/04/22 11:22:45;;;;;;;4.28;2.00;;;;;;;18.21;26.86;98916.03;4989325;28;20025;-70
2021/04/22 11:25:18;;;;;;;5.18;2.20;;;;;;;19.25;25.03;98902.09;4986389;28;20085;-69
2021/04/22 11:27:54;;;;;;;5.57;2.30;;;;;;;20.22;23.52;98901.50;4989465;28;20021;-70
2021/04/22 11:30:31;;;;;;;4.15;2.10;;;;;;;20.03;22.02;98900.16;4986627;28;20034;-70
2021/04/22 11:32:59;;;;;;;5.53;1.90;;;;;;;20.88;22.03;98905.53;4987312;28;20022;-70
2021/04/22 11:35:26;;;;;;;6.35;2.00;;;;;;;21.66;21.09;98905.75;4990864;28;20058;-71